createdAt,value
2023-04-09T00:00:59.048Z,20.84
2023-04-09T00:02:04.233Z,20.85
2023-04-09T00:03:09.603Z,20.85
2023-04-09T00:04:15.025Z,20.85
2023-04-09T00:05:20.347Z,20.83
2023-04-09T00:06:25.535Z,20.85
2023-04-09T00:07:30.739Z,20.85
2023-04-09T00:08:35.914Z,20.84
2023-04-09T00:09:41.079Z,20.84
2023-04-09T00:10:46.317Z,20.84
2023-04-09T00:11:51.502Z,20.83
2023-04-09T00:12:56.697Z,20.85
2023-04-09T00:14:01.908Z,20.84
2023-04-09T00:15:08.552Z,20.84
2023-04-09T00:16:34.208Z,20.83
2023-04-09T00:17:39.502Z,20.83
2023-04-09T00:18:44.855Z,20.84
2023-04-09T00:19:50.099Z,20.82
2023-04-09T00:20:55.314Z,20.82
2023-04-09T00:22:00.524Z,20.82
2023-04-09T00:23:05.722Z,20.82
2023-04-09T00:24:10.929Z,20.81
2023-04-09T00:25:16.152Z,20.8
2023-04-09T00:26:21.408Z,20.81
2023-04-09T00:27:26.583Z,20.81
2023-04-09T00:28:31.798Z,20.81
2023-04-09T00:29:37.070Z,20.81
2023-04-09T00:30:42.392Z,20.81
2023-04-09T00:31:47.603Z,20.81
2023-04-09T00:32:52.936Z,20.81
2023-04-09T00:33:58.257Z,20.81
2023-04-09T00:35:03.468Z,20.8
2023-04-09T00:36:08.759Z,20.8
2023-04-09T00:37:14.120Z,20.79
2023-04-09T00:38:19.331Z,20.79
2023-04-09T00:39:24.526Z,20.77
2023-04-09T00:40:29.766Z,20.79
2023-04-09T00:41:34.965Z,20.78
2023-04-09T00:42:40.170Z,20.77
2023-04-09T00:43:45.344Z,20.76
2023-04-09T00:44:50.540Z,20.77
2023-04-09T00:45:55.790Z,20.77
2023-04-09T00:47:01.205Z,20.77
2023-04-09T00:48:06.422Z,20.75
2023-04-09T00:49:11.623Z,20.76
2023-04-09T00:50:16.852Z,20.77
2023-04-09T00:51:22.065Z,20.75
2023-04-09T00:52:27.258Z,20.74
2023-04-09T00:53:32.486Z,20.74
2023-04-09T00:54:37.726Z,20.75
2023-04-09T00:55:43.000Z,20.74
2023-04-09T00:56:48.233Z,20.75
2023-04-09T00:57:53.416Z,20.75
2023-04-09T00:58:58.582Z,20.74
2023-04-09T01:00:03.768Z,20.73
2023-04-09T01:01:08.945Z,20.72
2023-04-09T01:02:14.345Z,20.72
2023-04-09T01:03:19.921Z,20.74
2023-04-09T01:04:25.438Z,20.73
2023-04-09T01:05:30.619Z,20.73
2023-04-09T01:06:35.797Z,20.73
2023-04-09T01:07:40.992Z,20.73
2023-04-09T01:08:46.217Z,20.73
2023-04-09T01:09:51.427Z,20.72
2023-04-09T01:10:56.623Z,20.72
2023-04-09T01:12:01.806Z,20.72
2023-04-09T01:13:07.014Z,20.72
2023-04-09T01:14:12.200Z,20.7
2023-04-09T01:15:17.389Z,20.72
2023-04-09T01:16:22.597Z,20.7
2023-04-09T01:17:27.986Z,20.72
2023-04-09T01:18:33.273Z,20.72
2023-04-09T01:19:39.882Z,20.7
2023-04-09T01:20:45.066Z,20.71
2023-04-09T01:21:50.264Z,20.71
2023-04-09T01:22:55.449Z,20.69
2023-04-09T01:24:00.637Z,20.71
2023-04-09T01:25:05.840Z,20.7
2023-04-09T01:26:11.098Z,20.69
2023-04-09T01:27:16.275Z,20.7
2023-04-09T01:28:21.479Z,20.7
2023-04-09T01:29:26.696Z,20.69
2023-04-09T01:30:31.910Z,20.68
2023-04-09T01:31:37.271Z,20.69
2023-04-09T01:32:42.549Z,20.69
2023-04-09T01:33:47.811Z,20.68
2023-04-09T01:34:52.992Z,20.68
2023-04-09T01:35:58.171Z,20.68
2023-04-09T01:37:03.476Z,20.69
2023-04-09T01:38:08.711Z,20.67
2023-04-09T01:39:13.879Z,20.68
2023-04-09T01:40:19.066Z,20.67
2023-04-09T01:41:24.307Z,20.67
2023-04-09T01:42:29.549Z,20.67
2023-04-09T01:43:34.770Z,20.67
2023-04-09T01:44:39.951Z,20.66
2023-04-09T01:45:45.201Z,20.67
2023-04-09T01:46:50.602Z,20.65
2023-04-09T01:47:55.805Z,20.66
2023-04-09T01:49:01.070Z,20.66
2023-04-09T01:50:06.278Z,20.65
2023-04-09T01:51:11.478Z,20.65
2023-04-09T01:52:16.759Z,20.65
2023-04-09T01:53:21.941Z,20.65
2023-04-09T01:54:27.172Z,20.65
2023-04-09T01:55:32.381Z,20.62
2023-04-09T01:56:37.553Z,20.64
2023-04-09T01:57:42.720Z,20.62
2023-04-09T01:58:47.893Z,20.63
2023-04-09T01:59:53.682Z,20.62
2023-04-09T02:00:58.906Z,20.6
2023-04-09T02:02:04.190Z,20.61
2023-04-09T02:03:09.604Z,20.62
2023-04-09T02:04:15.106Z,20.62
2023-04-09T02:05:20.330Z,20.6
2023-04-09T02:06:25.529Z,20.62
2023-04-09T02:07:30.724Z,20.62
2023-04-09T02:08:35.909Z,20.61
2023-04-09T02:09:41.120Z,20.61
2023-04-09T02:10:46.345Z,20.61
2023-04-09T02:11:51.532Z,20.59
2023-04-09T02:12:56.716Z,20.6
2023-04-09T02:14:01.923Z,20.6
2023-04-09T02:15:07.186Z,20.58
2023-04-09T02:16:12.415Z,20.6
2023-04-09T02:17:17.899Z,20.59
2023-04-09T02:18:23.240Z,20.58
2023-04-09T02:19:28.417Z,20.58
2023-04-09T02:20:33.676Z,20.59
2023-04-09T02:21:38.857Z,20.57
2023-04-09T02:22:44.075Z,20.59
2023-04-09T02:23:49.312Z,20.57
2023-04-09T02:24:54.622Z,20.59
2023-04-09T02:25:59.800Z,20.57
2023-04-09T02:27:04.967Z,20.56
2023-04-09T02:28:10.216Z,20.58
2023-04-09T02:29:15.404Z,20.56
2023-04-09T02:30:20.620Z,20.56
2023-04-09T02:31:25.885Z,20.56
2023-04-09T02:32:31.334Z,20.54
2023-04-09T02:33:36.627Z,20.54
2023-04-09T02:34:41.815Z,20.55
2023-04-09T02:35:47.199Z,20.55
2023-04-09T02:36:52.468Z,20.55
2023-04-09T02:37:57.799Z,20.55
2023-04-09T02:39:03.007Z,20.53
2023-04-09T02:40:08.187Z,20.55
2023-04-09T02:41:13.373Z,20.55
2023-04-09T02:42:18.572Z,20.54
2023-04-09T02:43:23.816Z,20.53
2023-04-09T02:44:29.040Z,20.54
2023-04-09T02:45:34.267Z,20.51
2023-04-09T02:46:39.563Z,20.53
2023-04-09T02:47:45.228Z,20.51
2023-04-09T02:48:50.819Z,20.51
2023-04-09T02:49:56.712Z,20.5
2023-04-09T02:51:01.908Z,20.52
2023-04-09T02:52:07.110Z,20.52
2023-04-09T02:53:12.323Z,20.52
2023-04-09T02:54:17.519Z,20.5
2023-04-09T02:55:22.734Z,20.52
2023-04-09T02:56:27.940Z,20.52
2023-04-09T02:57:33.644Z,20.5
2023-04-09T02:58:38.947Z,20.5
2023-04-09T02:59:44.126Z,20.51
2023-04-09T03:00:49.322Z,20.52
2023-04-09T03:01:54.537Z,20.51
2023-04-09T03:03:00.096Z,20.49
2023-04-09T03:04:05.874Z,20.5
2023-04-09T03:05:11.528Z,20.5
2023-04-09T03:06:16.712Z,20.49
2023-04-09T03:07:21.937Z,20.49
2023-04-09T03:08:27.255Z,20.48
2023-04-09T03:09:32.473Z,20.47
2023-04-09T03:10:37.661Z,20.48
2023-04-09T03:11:42.869Z,20.48
2023-04-09T03:12:48.101Z,20.49
2023-04-09T03:13:53.284Z,20.48
2023-04-09T03:14:58.475Z,20.46
2023-04-09T03:16:03.702Z,20.47
2023-04-09T03:17:09.112Z,20.47
2023-04-09T03:18:14.298Z,20.46
2023-04-09T03:19:19.574Z,20.45
2023-04-09T03:20:24.789Z,20.47
2023-04-09T03:21:29.937Z,20.44
2023-04-09T03:22:35.110Z,20.45
2023-04-09T03:23:40.328Z,20.45
2023-04-09T03:24:45.506Z,20.43
2023-04-09T03:25:50.701Z,20.45
2023-04-09T03:26:55.893Z,20.43
2023-04-09T03:28:01.102Z,20.44
2023-04-09T03:29:06.257Z,20.44
2023-04-09T03:30:11.455Z,20.44
2023-04-09T03:31:16.727Z,20.44
2023-04-09T03:32:22.077Z,20.42
2023-04-09T03:33:27.367Z,20.42
2023-04-09T03:34:32.580Z,20.43
2023-04-09T03:35:37.865Z,20.41
2023-04-09T03:36:43.165Z,20.43
2023-04-09T03:37:48.361Z,20.43
2023-04-09T03:38:53.786Z,20.42
2023-04-09T03:39:59.222Z,20.4
2023-04-09T03:41:04.485Z,20.41
2023-04-09T03:42:09.665Z,20.4
2023-04-09T03:43:14.849Z,20.38
2023-04-09T03:44:20.058Z,20.4
2023-04-09T03:45:25.265Z,20.39
2023-04-09T03:46:30.619Z,20.39
2023-04-09T03:47:36.006Z,20.39
2023-04-09T03:48:41.327Z,20.39
2023-04-09T03:49:46.546Z,20.37
2023-04-09T03:50:51.740Z,20.39
2023-04-09T03:51:56.950Z,20.37
2023-04-09T03:53:02.176Z,20.38
2023-04-09T03:54:07.362Z,20.39
2023-04-09T03:55:12.553Z,20.38
2023-04-09T03:56:17.733Z,20.39
2023-04-09T03:57:22.932Z,20.37
2023-04-09T03:58:28.184Z,20.38
2023-04-09T03:59:33.367Z,20.37
2023-04-09T04:00:38.553Z,20.36
2023-04-09T04:01:43.819Z,20.38
2023-04-09T04:02:49.341Z,20.38
2023-04-09T04:03:55.632Z,20.38
2023-04-09T04:05:01.074Z,20.38
2023-04-09T04:06:06.273Z,20.34
2023-04-09T04:07:11.497Z,20.37
2023-04-09T04:08:16.685Z,20.37
2023-04-09T04:09:21.862Z,20.39
2023-04-09T04:10:27.039Z,20.38
2023-04-09T04:11:32.236Z,20.4
2023-04-09T04:12:37.452Z,20.41
2023-04-09T04:13:42.664Z,20.43
2023-04-09T04:14:47.915Z,20.47
2023-04-09T04:15:53.204Z,20.49
2023-04-09T04:16:58.512Z,20.54
2023-04-09T04:18:03.704Z,20.58
2023-04-09T04:19:08.880Z,20.59
2023-04-09T04:20:15.326Z,20.63
2023-04-09T04:21:20.559Z,20.66
2023-04-09T04:22:26.394Z,20.66
2023-04-09T04:23:31.628Z,20.68
2023-04-09T04:24:36.915Z,20.72
2023-04-09T04:25:42.158Z,20.74
2023-04-09T04:26:47.358Z,20.74
2023-04-09T04:27:52.581Z,20.79
2023-04-09T04:28:57.805Z,20.81
2023-04-09T04:30:03.005Z,20.82
2023-04-09T04:31:08.241Z,20.85
2023-04-09T04:32:13.440Z,20.88
2023-04-09T04:33:18.596Z,20.87
2023-04-09T04:34:23.788Z,20.91
2023-04-09T04:35:29.045Z,20.94
2023-04-09T04:36:34.369Z,20.95
2023-04-09T04:37:39.555Z,20.98
2023-04-09T04:38:44.738Z,21.01
2023-04-09T04:39:49.923Z,21.04
2023-04-09T04:40:55.107Z,21.05
2023-04-09T04:42:00.344Z,21.07
2023-04-09T04:43:05.550Z,21.1
2023-04-09T04:44:10.726Z,21.14
2023-04-09T04:45:15.916Z,21.15
2023-04-09T04:46:21.156Z,21.17
2023-04-09T04:47:26.700Z,21.17
2023-04-09T04:48:32.112Z,21.22
2023-04-09T04:49:37.324Z,21.23
2023-04-09T04:50:42.521Z,21.28
2023-04-09T04:51:47.721Z,21.29
2023-04-09T04:52:52.948Z,21.29
2023-04-09T04:53:58.153Z,21.27
2023-04-09T04:55:03.350Z,21.28
2023-04-09T04:56:08.697Z,21.27
2023-04-09T04:57:13.934Z,21.26
2023-04-09T04:58:19.139Z,21.22
2023-04-09T04:59:24.374Z,21.23
2023-04-09T05:00:29.575Z,21.22
2023-04-09T05:01:34.867Z,21.18
2023-04-09T05:02:40.750Z,21.16
2023-04-09T05:03:46.584Z,21.17
2023-04-09T05:04:52.159Z,21.1
2023-04-09T05:05:57.360Z,21.16
2023-04-09T05:07:02.573Z,21.14
2023-04-09T05:08:07.770Z,21.14
2023-04-09T05:09:13.040Z,21.13
2023-04-09T05:10:18.253Z,21.15
2023-04-09T05:11:23.455Z,21.17
2023-04-09T05:12:28.632Z,21.17
2023-04-09T05:13:33.809Z,21.18
2023-04-09T05:14:39.033Z,21.21
2023-04-09T05:15:44.239Z,21.22
2023-04-09T05:16:49.464Z,21.21
2023-04-09T05:17:54.885Z,21.24
2023-04-09T05:19:00.229Z,21.27
2023-04-09T05:20:05.458Z,21.29
2023-04-09T05:21:10.689Z,21.29
2023-04-09T05:22:15.882Z,21.27
2023-04-09T05:23:21.094Z,21.26
2023-04-09T05:24:26.267Z,21.24
2023-04-09T05:25:31.500Z,21.12
2023-04-09T05:26:36.682Z,21.23
2023-04-09T05:27:41.867Z,21.23
2023-04-09T05:28:47.098Z,21.2
2023-04-09T05:29:52.497Z,21.21
2023-04-09T05:30:57.718Z,21.19
2023-04-09T05:32:03.043Z,21.19
2023-04-09T05:33:08.313Z,21.18
2023-04-09T05:34:13.493Z,21.18
2023-04-09T05:35:18.694Z,21.18
2023-04-09T05:36:23.894Z,21.2
2023-04-09T05:37:29.161Z,21.22
2023-04-09T05:38:34.405Z,21.22
2023-04-09T05:39:39.606Z,21.25
2023-04-09T05:40:45.809Z,21.27
2023-04-09T05:41:51.613Z,21.3
2023-04-09T05:42:56.850Z,21.3
2023-04-09T05:44:02.073Z,21.29
2023-04-09T05:45:07.370Z,21.31
2023-04-09T05:46:12.621Z,21.3
2023-04-09T05:47:18.085Z,21.29
2023-04-09T05:48:23.379Z,21.28
2023-04-09T05:49:28.557Z,21.26
2023-04-09T05:50:40.800Z,21.26
2023-04-09T05:51:58.740Z,21.24
2023-04-09T05:53:03.944Z,21.25
2023-04-09T05:54:09.150Z,21.23
2023-04-09T05:55:14.342Z,21.23
2023-04-09T05:56:19.541Z,21.23
2023-04-09T05:57:24.726Z,21.23
2023-04-09T05:58:30.167Z,21.23
2023-04-09T05:59:35.600Z,21.27
2023-04-09T06:00:40.798Z,21.29
2023-04-09T06:01:46.011Z,21.29
2023-04-09T06:02:51.367Z,21.34
2023-04-09T06:03:58.349Z,21.36
2023-04-09T06:05:05.191Z,21.36
2023-04-09T06:06:10.434Z,21.38
2023-04-09T06:07:15.657Z,21.4
2023-04-09T06:08:20.840Z,21.39
2023-04-09T06:09:26.056Z,21.38
2023-04-09T06:10:31.301Z,21.37
2023-04-09T06:11:36.521Z,21.35
2023-04-09T06:12:41.712Z,21.35
2023-04-09T06:13:46.913Z,21.35
2023-04-09T06:14:52.221Z,21.34
2023-04-09T06:15:57.433Z,21.32
2023-04-09T06:17:02.782Z,21.31
2023-04-09T06:18:08.076Z,21.33
2023-04-09T06:19:13.309Z,21.32
2023-04-09T06:20:18.849Z,21.32
2023-04-09T06:21:24.057Z,21.31
2023-04-09T06:22:29.273Z,21.3
2023-04-09T06:23:34.459Z,21.28
2023-04-09T06:24:39.659Z,21.28
2023-04-09T06:25:44.877Z,21.28
2023-04-09T06:26:50.059Z,21.26
2023-04-09T06:27:55.294Z,21.28
2023-04-09T06:29:00.543Z,21.27
2023-04-09T06:30:05.736Z,21.3
2023-04-09T06:31:11.026Z,21.32
2023-04-09T06:32:16.389Z,21.34
2023-04-09T06:33:21.602Z,21.36
2023-04-09T06:34:26.932Z,21.35
2023-04-09T06:35:32.256Z,21.36
2023-04-09T06:36:37.608Z,21.37
2023-04-09T06:37:42.917Z,21.37
2023-04-09T06:38:48.153Z,21.37
2023-04-09T06:40:00.777Z,21.35
2023-04-09T06:41:06.607Z,21.34
2023-04-09T06:42:11.868Z,21.35
2023-04-09T06:43:17.059Z,21.29
2023-04-09T06:44:22.266Z,21.32
2023-04-09T06:45:27.471Z,21.33
2023-04-09T06:46:32.651Z,21.31
2023-04-09T06:47:38.072Z,21.32
2023-04-09T06:48:43.757Z,21.32
2023-04-09T06:49:48.926Z,21.31
2023-04-09T06:50:54.138Z,21.31
2023-04-09T06:51:59.335Z,21.3
2023-04-09T06:53:04.542Z,21.28
2023-04-09T06:54:09.742Z,21.28
2023-04-09T06:55:14.935Z,21.29
2023-04-09T06:56:20.177Z,21.29
2023-04-09T06:57:25.361Z,21.28
2023-04-09T06:58:30.566Z,21.28
2023-04-09T06:59:35.783Z,21.28
2023-04-09T07:00:41.000Z,21.27
2023-04-09T07:01:46.387Z,21.26
2023-04-09T07:02:52.811Z,21.27
2023-04-09T07:03:58.861Z,21.25
2023-04-09T07:05:04.299Z,21.25
2023-04-09T07:06:09.532Z,21.24
2023-04-09T07:07:14.872Z,21.26
2023-04-09T07:08:20.100Z,21.24
2023-04-09T07:09:25.307Z,21.25
2023-04-09T07:10:30.509Z,21.25
2023-04-09T07:11:35.710Z,21.24
2023-04-09T07:12:40.898Z,21.23
2023-04-09T07:13:46.103Z,21.25
2023-04-09T07:14:51.403Z,21.27
2023-04-09T07:15:56.598Z,21.28
2023-04-09T07:17:01.925Z,21.3
2023-04-09T07:18:07.189Z,21.3
2023-04-09T07:19:12.521Z,21.3
2023-04-09T07:20:17.710Z,21.32
2023-04-09T07:21:23.311Z,21.32
2023-04-09T07:22:28.514Z,21.31
2023-04-09T07:23:33.731Z,21.32
2023-04-09T07:24:38.914Z,21.34
2023-04-09T07:25:44.161Z,21.35
2023-04-09T07:26:51.069Z,21.35
2023-04-09T07:27:57.180Z,21.35
2023-04-09T07:29:02.409Z,21.35
2023-04-09T07:30:07.929Z,21.38
2023-04-09T07:31:13.214Z,21.37
2023-04-09T07:32:18.482Z,21.37
2023-04-09T07:33:23.766Z,21.36
2023-04-09T07:34:28.974Z,21.38
2023-04-09T07:35:34.170Z,21.37
2023-04-09T07:36:39.518Z,21.38
2023-04-09T07:37:44.776Z,21.39
2023-04-09T07:38:50.156Z,21.39
2023-04-09T07:39:55.994Z,21.38
2023-04-09T07:41:01.186Z,21.36
2023-04-09T07:42:06.510Z,21.36
2023-04-09T07:43:11.831Z,21.36
2023-04-09T07:44:17.025Z,21.36
2023-04-09T07:45:22.359Z,21.38
2023-04-09T07:46:27.614Z,21.38
2023-04-09T07:47:32.894Z,21.36
2023-04-09T07:48:38.152Z,21.37
2023-04-09T07:49:43.367Z,21.38
2023-04-09T07:50:48.606Z,21.39
2023-04-09T07:51:53.773Z,21.39
2023-04-09T07:52:58.973Z,21.39
2023-04-09T07:54:04.195Z,21.37
2023-04-09T07:55:09.396Z,21.39
2023-04-09T07:56:14.587Z,21.4
2023-04-09T07:57:19.782Z,21.43
2023-04-09T07:58:25.005Z,21.43
2023-04-09T07:59:30.278Z,21.43
2023-04-09T08:00:35.613Z,21.44
2023-04-09T08:01:40.853Z,21.44
2023-04-09T08:02:46.503Z,21.44
2023-04-09T08:03:52.748Z,21.45
2023-04-09T08:04:58.390Z,21.44
2023-04-09T08:06:03.905Z,21.44
2023-04-09T08:07:09.111Z,21.46
2023-04-09T08:08:14.312Z,21.46
2023-04-09T08:09:19.662Z,21.46
2023-04-09T08:10:24.913Z,21.47
2023-04-09T08:11:30.128Z,21.47
2023-04-09T08:12:35.328Z,21.47
2023-04-09T08:13:40.512Z,21.46
2023-04-09T08:14:45.729Z,21.46
2023-04-09T08:15:50.926Z,21.46
2023-04-09T08:16:56.161Z,21.45
2023-04-09T08:18:01.428Z,21.48
2023-04-09T08:19:06.802Z,21.45
2023-04-09T08:20:12.011Z,21.47
2023-04-09T08:21:17.212Z,21.47
2023-04-09T08:22:22.403Z,21.49
2023-04-09T08:23:27.595Z,21.48
2023-04-09T08:24:32.797Z,21.51
2023-04-09T08:25:37.987Z,21.52
2023-04-09T08:26:43.221Z,21.52
2023-04-09T08:27:48.426Z,21.51
2023-04-09T08:28:53.893Z,21.52
2023-04-09T08:29:59.570Z,21.52
2023-04-09T08:31:07.892Z,21.51
2023-04-09T08:32:13.136Z,21.52
2023-04-09T08:33:18.491Z,21.53
2023-04-09T08:34:23.678Z,21.53
2023-04-09T08:35:29.076Z,21.53
2023-04-09T08:36:34.343Z,21.53
2023-04-09T08:37:39.824Z,21.52
2023-04-09T08:38:45.070Z,21.52
2023-04-09T08:39:50.298Z,21.52
2023-04-09T08:40:55.512Z,21.52
2023-04-09T08:42:00.737Z,21.51
2023-04-09T08:43:06.158Z,21.51
2023-04-09T08:44:11.407Z,21.51
2023-04-09T08:45:16.619Z,21.51
2023-04-09T08:46:21.921Z,21.52
2023-04-09T08:47:27.649Z,21.52
2023-04-09T08:48:33.100Z,21.51
2023-04-09T08:49:38.558Z,21.51
2023-04-09T08:50:43.783Z,21.52
2023-04-09T08:51:49.124Z,21.51
2023-04-09T08:52:54.426Z,21.51
2023-04-09T08:54:01.470Z,21.52
2023-04-09T08:55:09.249Z,21.52
2023-04-09T08:56:14.600Z,21.5
2023-04-09T08:57:19.823Z,21.51
2023-04-09T08:58:25.004Z,21.52
2023-04-09T08:59:30.231Z,21.52
2023-04-09T09:00:35.410Z,21.52
2023-04-09T09:01:40.951Z,21.5
2023-04-09T09:02:46.583Z,21.52
2023-04-09T09:03:52.130Z,21.52
2023-04-09T09:04:57.850Z,21.53
2023-04-09T09:06:03.044Z,21.54
2023-04-09T09:07:08.231Z,21.55
2023-04-09T09:08:13.432Z,21.55
2023-04-09T09:09:18.680Z,21.54
2023-04-09T09:10:23.948Z,21.54
2023-04-09T09:11:29.180Z,21.52
2023-04-09T09:12:34.415Z,21.54
2023-04-09T09:13:39.641Z,21.55
2023-04-09T09:14:44.915Z,21.55
2023-04-09T09:15:50.096Z,21.39
2023-04-09T09:16:55.308Z,21.53
2023-04-09T09:18:01.012Z,21.54
2023-04-09T09:19:06.465Z,21.52
2023-04-09T09:20:11.710Z,21.52
2023-04-09T09:21:16.968Z,21.51
2023-04-09T09:22:22.197Z,21.51
2023-04-09T09:23:27.594Z,21.38
2023-04-09T09:24:32.768Z,21.53
2023-04-09T09:25:37.949Z,21.53
2023-04-09T09:26:43.140Z,21.54
2023-04-09T09:27:48.333Z,21.52
2023-04-09T09:28:53.707Z,21.53
2023-04-09T09:29:59.622Z,21.48
2023-04-09T09:31:04.902Z,21.54
2023-04-09T09:32:10.480Z,21.52
2023-04-09T09:33:15.741Z,21.54
2023-04-09T09:34:20.956Z,21.52
2023-04-09T09:35:26.269Z,21.54
2023-04-09T09:36:31.613Z,21.52
2023-04-09T09:37:36.911Z,21.51
2023-04-09T09:38:42.117Z,21.53
2023-04-09T09:39:47.313Z,21.53
2023-04-09T09:40:52.652Z,21.53
2023-04-09T09:41:57.879Z,21.51
2023-04-09T09:43:03.107Z,21.53
2023-04-09T09:44:08.284Z,21.53
2023-04-09T09:45:13.530Z,21.51
2023-04-09T09:46:18.723Z,21.52
2023-04-09T09:47:24.050Z,21.51
2023-04-09T09:48:29.472Z,21.53
2023-04-09T09:49:34.641Z,21.52
2023-04-09T09:50:39.842Z,21.52
2023-04-09T09:51:45.018Z,21.52
2023-04-09T09:52:50.210Z,21.5
2023-04-09T09:53:55.418Z,21.52
2023-04-09T09:55:00.655Z,21.5
2023-04-09T09:56:05.865Z,21.53
2023-04-09T09:57:11.036Z,21.51
2023-04-09T09:58:16.293Z,21.52
2023-04-09T09:59:21.537Z,21.52
2023-04-09T10:00:26.775Z,21.51
2023-04-09T10:01:32.051Z,21.5
2023-04-09T10:02:37.577Z,21.5
2023-04-09T10:03:43.370Z,21.5
2023-04-09T10:04:48.655Z,21.49
2023-04-09T10:05:54.320Z,21.49
2023-04-09T10:06:59.585Z,21.49
2023-04-09T10:08:04.815Z,21.49
2023-04-09T10:09:10.030Z,21.49
2023-04-09T10:10:15.289Z,21.49
2023-04-09T10:11:20.484Z,21.49
2023-04-09T10:12:25.649Z,21.47
2023-04-09T10:13:30.889Z,21.5
2023-04-09T10:14:36.203Z,21.5
2023-04-09T10:15:41.487Z,21.49
2023-04-09T10:16:46.758Z,21.5
2023-04-09T10:17:52.067Z,21.49
2023-04-09T10:18:57.335Z,21.51
2023-04-09T10:20:02.544Z,21.51
2023-04-09T10:21:07.794Z,21.51
2023-04-09T10:22:13.113Z,21.52
2023-04-09T10:23:18.350Z,21.51
2023-04-09T10:24:23.779Z,21.53
2023-04-09T10:25:28.996Z,21.53
2023-04-09T10:26:34.240Z,21.53
2023-04-09T10:27:39.464Z,21.54
2023-04-09T10:28:44.669Z,21.57
2023-04-09T10:29:49.863Z,21.56
2023-04-09T10:30:55.077Z,21.57
2023-04-09T10:32:00.376Z,21.57
2023-04-09T10:33:05.600Z,21.56
2023-04-09T10:34:11.252Z,21.56
2023-04-09T10:35:16.449Z,21.56
2023-04-09T10:36:21.669Z,21.59
2023-04-09T10:37:26.984Z,21.59
2023-04-09T10:38:32.174Z,21.59
2023-04-09T10:39:37.352Z,21.6
2023-04-09T10:40:42.527Z,21.61
2023-04-09T10:41:47.728Z,21.65
2023-04-09T10:42:52.902Z,21.67
2023-04-09T10:43:58.091Z,21.72
2023-04-09T10:45:03.255Z,21.72
2023-04-09T10:46:08.535Z,21.73
2023-04-09T10:47:13.851Z,21.7
2023-04-09T10:48:19.035Z,21.71
2023-04-09T10:49:24.256Z,21.75
2023-04-09T10:50:29.573Z,21.77
2023-04-09T10:51:34.828Z,21.78
2023-04-09T10:52:40.090Z,21.76
2023-04-09T10:53:45.307Z,21.74
2023-04-09T10:54:50.495Z,21.74
2023-04-09T10:55:55.694Z,21.72
2023-04-09T10:57:00.896Z,21.73
2023-04-09T10:58:06.097Z,21.71
2023-04-09T10:59:16.364Z,21.7
2023-04-09T11:00:21.579Z,21.69
2023-04-09T11:01:26.855Z,21.69
2023-04-09T11:02:32.306Z,21.69
2023-04-09T11:03:38.195Z,21.66
2023-04-09T11:04:43.530Z,21.68
2023-04-09T11:05:48.914Z,21.67
2023-04-09T11:06:54.169Z,21.67
2023-04-09T11:07:59.515Z,21.67
2023-04-09T11:09:04.689Z,21.67
2023-04-09T11:10:09.876Z,21.65
2023-04-09T11:11:15.208Z,21.66
2023-04-09T11:12:20.486Z,21.67
2023-04-09T11:13:25.697Z,21.66
2023-04-09T11:14:30.967Z,21.66
2023-04-09T11:15:36.208Z,21.66
2023-04-09T11:16:41.467Z,21.66
2023-04-09T11:17:47.030Z,21.67
2023-04-09T11:18:52.557Z,21.67
2023-04-09T11:19:58.163Z,21.66
2023-04-09T11:21:03.421Z,21.66
2023-04-09T11:22:08.827Z,21.67
2023-04-09T11:23:14.021Z,21.65
2023-04-09T11:24:19.179Z,21.67
2023-04-09T11:25:24.423Z,21.67
2023-04-09T11:26:29.652Z,21.69
2023-04-09T11:27:34.950Z,21.69
2023-04-09T11:28:40.141Z,21.68
2023-04-09T11:29:45.351Z,21.69
2023-04-09T11:30:50.533Z,21.68
2023-04-09T11:31:55.797Z,21.67
2023-04-09T11:33:01.340Z,21.69
2023-04-09T11:34:06.792Z,21.69
2023-04-09T11:35:11.991Z,21.67
2023-04-09T11:36:17.192Z,21.67
2023-04-09T11:37:22.555Z,21.69
2023-04-09T11:38:27.766Z,21.69
2023-04-09T11:39:32.975Z,21.7
2023-04-09T11:40:38.161Z,21.67
2023-04-09T11:41:43.352Z,21.68
2023-04-09T11:42:48.579Z,21.68
2023-04-09T11:43:53.802Z,21.67
2023-04-09T11:44:58.989Z,21.69
2023-04-09T11:46:04.203Z,21.67
2023-04-09T11:47:09.423Z,21.69
2023-04-09T11:48:14.833Z,21.69
2023-04-09T11:49:20.016Z,21.67
2023-04-09T11:50:25.232Z,21.68
2023-04-09T11:51:30.442Z,21.68
2023-04-09T11:52:35.624Z,21.68
2023-04-09T11:53:40.791Z,21.68
2023-04-09T11:54:45.972Z,21.69
2023-04-09T11:55:51.158Z,21.69
2023-04-09T11:56:56.462Z,21.68
2023-04-09T11:58:01.672Z,21.66
2023-04-09T11:59:06.965Z,21.66
2023-04-09T12:00:12.262Z,21.67
2023-04-09T12:01:17.475Z,21.68
2023-04-09T12:02:22.909Z,21.68
2023-04-09T12:03:28.746Z,21.68
2023-04-09T12:04:34.819Z,21.67
2023-04-09T12:05:41.661Z,21.69
2023-04-09T12:06:53.845Z,21.69
2023-04-09T12:07:59.034Z,21.69
2023-04-09T12:09:04.282Z,21.67
2023-04-09T12:10:09.514Z,21.69
2023-04-09T12:11:14.708Z,21.68
2023-04-09T12:12:19.953Z,21.69
2023-04-09T12:13:25.125Z,21.61
2023-04-09T12:14:30.299Z,21.67
2023-04-09T12:15:35.496Z,21.68
2023-04-09T12:16:40.723Z,21.68
2023-04-09T12:17:46.083Z,21.68
2023-04-09T12:18:51.576Z,21.68
2023-04-09T12:19:57.674Z,21.64
2023-04-09T12:21:02.866Z,21.66
2023-04-09T12:22:08.117Z,21.68
2023-04-09T12:23:13.510Z,21.68
2023-04-09T12:24:18.803Z,21.67
2023-04-09T12:25:24.053Z,21.64
2023-04-09T12:26:29.301Z,21.66
2023-04-09T12:27:34.510Z,21.66
2023-04-09T12:28:39.726Z,21.64
2023-04-09T12:29:44.926Z,21.67
2023-04-09T12:30:52.422Z,21.65
2023-04-09T12:32:03.527Z,21.67
2023-04-09T12:33:10.877Z,21.66
2023-04-09T12:34:16.405Z,21.65
2023-04-09T12:35:21.851Z,21.66
2023-04-09T12:36:27.315Z,21.65
2023-04-09T12:37:32.554Z,21.66
2023-04-09T12:38:37.785Z,21.67
2023-04-09T12:39:42.982Z,21.64
2023-04-09T12:40:48.156Z,21.66
2023-04-09T12:41:53.355Z,21.65
2023-04-09T12:42:58.529Z,21.66
2023-04-09T12:44:03.721Z,21.65
2023-04-09T12:45:09.056Z,21.64
2023-04-09T12:46:14.297Z,21.66
2023-04-09T12:47:19.685Z,21.63
2023-04-09T12:48:24.928Z,21.66
2023-04-09T12:49:30.127Z,21.66
2023-04-09T12:50:35.344Z,21.66
2023-04-09T12:51:40.550Z,21.67
2023-04-09T12:52:45.749Z,21.65
2023-04-09T12:53:51.134Z,21.67
2023-04-09T12:54:57.378Z,21.67
2023-04-09T12:56:02.589Z,21.66
2023-04-09T12:57:07.782Z,21.68
2023-04-09T12:58:12.983Z,21.66
2023-04-09T12:59:18.203Z,21.67
2023-04-09T13:00:23.403Z,21.67
2023-04-09T13:01:28.672Z,21.66
2023-04-09T13:02:34.176Z,21.67
2023-04-09T13:03:40.386Z,21.47
2023-04-09T13:04:46.565Z,21.65
2023-04-09T13:05:51.751Z,21.66
2023-04-09T13:06:56.951Z,21.66
2023-04-09T13:08:02.155Z,21.65
2023-04-09T13:09:07.404Z,21.67
2023-04-09T13:10:12.603Z,21.67
2023-04-09T13:11:17.809Z,21.67
2023-04-09T13:12:22.979Z,21.67
2023-04-09T13:13:28.192Z,21.67
2023-04-09T13:14:33.364Z,21.49
2023-04-09T13:15:38.565Z,21.67
2023-04-09T13:16:43.782Z,21.67
2023-04-09T13:17:49.181Z,21.65
2023-04-09T13:18:54.767Z,21.66
2023-04-09T13:20:00.224Z,21.66
2023-04-09T13:21:05.770Z,21.65
2023-04-09T13:22:10.961Z,21.65
2023-04-09T13:23:16.310Z,21.64
2023-04-09T13:24:21.504Z,21.62
2023-04-09T13:25:26.685Z,21.65
2023-04-09T13:26:31.958Z,21.65
2023-04-09T13:27:37.125Z,21.64
2023-04-09T13:28:42.356Z,21.65
2023-04-09T13:29:47.548Z,21.62
2023-04-09T13:30:52.793Z,21.63
2023-04-09T13:31:58.180Z,21.61
2023-04-09T13:33:03.431Z,21.62
2023-04-09T13:34:08.841Z,21.6
2023-04-09T13:35:14.047Z,21.62
2023-04-09T13:36:19.279Z,21.59
2023-04-09T13:37:24.494Z,21.61
2023-04-09T13:38:29.710Z,21.59
2023-04-09T13:39:35.099Z,21.61
2023-04-09T13:40:40.302Z,21.61
2023-04-09T13:41:45.478Z,21.6
2023-04-09T13:42:50.756Z,21.59
2023-04-09T13:43:55.961Z,21.6
2023-04-09T13:45:01.155Z,21.6
2023-04-09T13:46:06.454Z,21.61
2023-04-09T13:47:11.785Z,21.6
2023-04-09T13:48:17.050Z,21.6
2023-04-09T13:49:22.324Z,21.61
2023-04-09T13:50:27.514Z,21.6
2023-04-09T13:51:32.731Z,21.58
2023-04-09T13:52:37.918Z,21.59
2023-04-09T13:53:43.144Z,21.58
2023-04-09T13:54:48.353Z,21.59
2023-04-09T13:55:53.564Z,21.59
2023-04-09T13:56:58.756Z,21.58
2023-04-09T13:58:03.963Z,21.59
2023-04-09T13:59:09.220Z,21.6
2023-04-09T14:00:14.426Z,21.59
2023-04-09T14:01:19.649Z,21.6
2023-04-09T14:02:25.094Z,21.59
2023-04-09T14:03:30.923Z,21.58
2023-04-09T14:04:36.405Z,21.58